Time;durP1;ratioP1;P1;durP2;ratioP2;P2;SDS_P1;SDS_P2;PMS_P1;PMS_P2;Temp;Humidity;BMP_temperature;BMP_pressure;BME280_temperature;BME280_humidity;BME280_pressure;Samples;Min_cycle;Max_cycle;Signal;HPM_P1;HPM_P2
2022/07/21 00:00:41;;;;;;;24.60;20.45;;;20.90;79.10;;;;;;5078657;28;20376;-83
2022/07/21 00:03:06;;;;;;;28.85;21.15;;;20.90;82.70;;;;;;5095614;28;20176;-79
2022/07/21 00:05:32;;;;;;;24.83;20.90;;;20.90;81.50;;;;;;5112531;28;20472;-78
2022/07/21 00:07:58;;;;;;;26.38;22.00;;;20.90;81.10;;;;;;5095543;28;20073;-79
2022/07/21 00:10:25;;;;;;;26.17;20.90;;;20.90;81.50;;;;;;5077973;28;20036;-77
2022/07/21 00:12:51;;;;;;;27.13;22.70;;;20.80;83.20;;;;;;5077970;28;20040;-79
2022/07/21 00:15:20;;;;;;;25.45;22.70;;;20.80;83.30;;;;;;5061576;28;20040;-80
2022/07/21 00:17:46;;;;;;;27.65;23.90;;;20.80;84.00;;;;;;5061744;28;20032;-79
2022/07/21 00:20:14;;;;;;;30.08;25.15;;;20.80;84.60;;;;;;5095270;28;20046;-79
2022/07/21 00:22:40;;;;;;;28.95;25.65;;;20.80;85.70;;;;;;5061387;28;20040;-80
2022/07/21 00:25:07;;;;;;;32.97;27.38;;;20.70;83.90;;;;;;5061357;28;20044;-82
2022/07/21 00:27:33;;;;;;;31.52;27.35;;;20.70;84.10;;;;;;5058120;28;20118;-80
2022/07/21 00:29:59;;;;;;;31.17;26.02;;;20.80;84.30;;;;;;5058183;28;20049;-80
2022/07/21 00:32:25;;;;;;;30.48;26.13;;;20.80;84.70;;;;;;5058018;28;20036;-82
2022/07/21 00:34:51;;;;;;;38.00;26.90;;;20.80;86.60;;;;;;5074710;28;20048;-80
2022/07/21 00:37:17;;;;;;;30.40;26.92;;;20.70;85.70;;;;;;5041414;28;20487;-80
2022/07/21 00:39:42;;;;;;;30.38;26.20;;;20.70;87.20;;;;;;5057932;28;20475;-79
2022/07/21 00:42:18;;;;;;;36.40;27.25;;;20.60;87.50;;;;;;5075121;28;20040;-79
2022/07/21 00:44:44;;;;;;;38.03;28.75;;;20.60;87.70;;;;;;5059319;28;20376;-81
2022/07/21 00:47:10;;;;;;;34.17;28.23;;;20.50;86.50;;;;;;5041233;28;20045;-80
2022/07/21 00:49:36;;;;;;;35.80;30.38;;;20.50;87.30;;;;;;5057443;28;20536;-80
2022/07/21 00:52:01;;;;;;;32.47;28.60;;;20.50;88.80;;;;;;5057541;28;20036;-79
2022/07/21 00:54:27;;;;;;;38.22;30.88;;;20.50;87.60;;;;;;5056898;28;20071;-80
2022/07/21 00:56:53;;;;;;;38.53;32.55;;;20.50;88.20;;;;;;5073057;28;20028;-81
2022/07/21 00:59:18;;;;;;;38.42;33.75;;;20.50;88.80;;;;;;5040241;28;20046;-81
2022/07/21 01:01:44;;;;;;;40.45;35.47;;;20.50;88.00;;;;;;5057368;28;20044;-82
2022/07/21 01:04:10;;;;;;;45.55;36.95;;;20.60;88.30;;;;;;5057104;28;20051;-80
2022/07/21 01:06:36;;;;;;;40.45;36.15;;;20.60;87.60;;;;;;5090913;28;20079;-80
2022/07/21 01:09:02;;;;;;;40.20;35.88;;;20.60;88.10;;;;;;5057010;28;20484;-81
2022/07/21 01:11:28;;;;;;;45.05;38.38;;;20.60;89.40;;;;;;5073966;28;20040;-81
2022/07/21 01:13:54;;;;;;;55.55;41.92;;;20.50;88.80;;;;;;5040615;28;20036;-80
2022/07/21 01:16:20;;;;;;;46.60;39.00;;;20.60;89.60;;;;;;5057025;28;20043;-78
2022/07/21 01:18:46;;;;;;;46.47;38.17;;;20.60;88.90;;;;;;5074351;28;20036;-78
2022/07/21 01:21:31;;;;;;;46.65;37.45;;;20.60;88.30;;;;;;5057058;28;20518;-79
2022/07/21 01:23:57;;;;;;;41.47;36.08;;;20.60;89.10;;;;;;5073475;28;20049;-80
2022/07/21 01:26:22;;;;;;;42.08;37.08;;;20.60;89.00;;;;;;5073428;28;20055;-80
2022/07/21 01:28:48;;;;;;;49.08;38.50;;;20.70;88.90;;;;;;5057069;28;20056;-80
2022/07/21 01:31:14;;;;;;;40.35;35.88;;;20.60;88.70;;;;;;5056677;28;20044;-80
2022/07/21 01:33:42;;;;;;;43.95;38.00;;;20.60;88.60;;;;;;5056645;28;20400;-83
2022/07/21 01:36:08;;;;;;;47.00;37.63;;;20.70;88.90;;;;;;5073383;28;20037;-80
2022/07/21 01:41:30;;;;;;;40.63;33.17;;;20.60;89.20;;;;;;5059477;28;20051;-81
2022/07/21 01:43:56;;;;;;;38.60;33.28;;;20.60;89.60;;;;;;5058035;28;20036;-80
2022/07/21 01:46:22;;;;;;;43.63;35.28;;;20.60;88.80;;;;;;5056863;28;20049;-80
2022/07/21 01:48:48;;;;;;;34.13;26.25;;;20.60;88.80;;;;;;5072958;28;20043;-81
2022/07/21 01:51:14;;;;;;;31.75;28.40;;;20.60;89.30;;;;;;5072973;28;20079;-81
2022/07/21 01:53:40;;;;;;;37.05;31.92;;;20.60;88.90;;;;;;5056579;28;20068;-82
2022/07/21 01:56:06;;;;;;;34.67;30.90;;;20.60;89.10;;;;;;5073121;28;20037;-82
2022/07/21 01:58:32;;;;;;;43.17;33.92;;;20.50;88.80;;;;;;5056393;28;20037;-81
2022/07/21 02:00:58;;;;;;;35.08;30.88;;;20.50;89.30;;;;;;5073289;28;20043;-83
2022/07/21 02:03:24;;;;;;;33.60;30.08;;;20.50;88.70;;;;;;5056046;28;20044;-80
2022/07/21 02:05:50;;;;;;;29.33;25.45;;;20.50;89.20;;;;;;5056487;28;20126;-82
2022/07/21 02:08:15;;;;;;;35.53;29.15;;;20.50;89.30;;;;;;5072681;28;20408;-81
2022/07/21 02:10:41;;;;;;;25.95;23.25;;;20.50;89.40;;;;;;5072858;28;20451;-81
2022/07/21 02:13:08;;;;;;;40.72;30.80;;;20.50;89.00;;;;;;5072939;28;20036;-81
2022/07/21 02:15:33;;;;;;;43.90;35.80;;;20.40;89.10;;;;;;5055965;28;20120;-82
2022/07/21 02:17:59;;;;;;;48.13;37.85;;;20.50;89.10;;;;;;5072778;28;20083;-81
2022/07/21 02:20:25;;;;;;;47.78;39.53;;;20.40;89.50;;;;;;5055822;28;20036;-82
2022/07/21 02:22:51;;;;;;;35.25;29.10;;;20.40;89.30;;;;;;5055707;28;20047;-81
2022/07/21 02:25:17;;;;;;;44.83;36.42;;;20.40;89.10;;;;;;5039330;28;20032;-82
2022/07/21 02:27:44;;;;;;;47.78;38.13;;;20.30;89.20;;;;;;5055502;28;20061;-81
2022/07/21 02:30:11;;;;;;;41.97;36.03;;;20.30;90.00;;;;;;5072447;28;20037;-81
2022/07/21 02:32:36;;;;;;;31.02;27.65;;;20.30;90.00;;;;;;5072490;28;20040;-79
2022/07/21 02:35:03;;;;;;;41.63;36.00;;;20.30;90.10;;;;;;5071851;28;20507;-81
2022/07/21 02:37:29;;;;;;;38.40;33.90;;;20.20;90.20;;;;;;5072249;28;20044;-82
2022/07/21 02:39:54;;;;;;;39.67;34.97;;;20.20;89.80;;;;;;5089102;28;20127;-80
2022/07/21 02:42:20;;;;;;;48.30;37.97;;;20.20;90.00;;;;;;5039228;28;20055;-80
2022/07/21 02:44:46;;;;;;;45.45;36.75;;;20.20;89.90;;;;;;5055963;28;20036;-81
2022/07/21 02:47:11;;;;;;;39.38;34.45;;;20.20;90.10;;;;;;5056109;28;20050;-80
2022/07/21 02:49:37;;;;;;;36.47;31.88;;;20.20;89.70;;;;;;5072322;28;20105;-81
2022/07/21 02:52:03;;;;;;;56.22;41.55;;;20.20;90.00;;;;;;5039176;28;20036;-81
2022/07/21 02:54:29;;;;;;;52.70;41.95;;;20.20;89.90;;;;;;5038876;28;20097;-81
2022/07/21 02:56:54;;;;;;;52.85;40.80;;;20.20;90.00;;;;;;5072382;28;20036;-81
2022/07/21 02:59:20;;;;;;;60.13;43.85;;;20.20;90.20;;;;;;5039664;28;20044;-82
2022/07/21 03:01:46;;;;;;;50.08;40.50;;;20.20;90.30;;;;;;5055597;28;20481;-81
2022/07/21 03:04:12;;;;;;;36.08;28.90;;;20.10;90.60;;;;;;5038882;28;20094;-82
2022/07/21 03:06:37;;;;;;;51.53;40.72;;;20.20;90.70;;;;;;5089293;28;20043;-81
2022/07/21 03:09:04;;;;;;;44.85;37.55;;;20.10;90.30;;;;;;5071928;28;20408;-81
2022/07/21 03:11:29;;;;;;;56.03;43.22;;;20.10;91.00;;;;;;5055245;28;20071;-82
2022/07/21 03:13:55;;;;;;;42.38;36.78;;;20.10;91.20;;;;;;5071843;28;20072;-80
2022/07/21 03:16:21;;;;;;;44.13;36.70;;;20.00;91.70;;;;;;5038604;28;20037;-82
2022/07/21 03:18:46;;;;;;;55.63;43.22;;;20.00;91.40;;;;;;5055207;28;20064;-81
2022/07/21 03:21:12;;;;;;;56.58;42.65;;;20.00;91.70;;;;;;5041942;28;20381;-81
2022/07/21 03:23:38;;;;;;;52.58;41.30;;;20.00;92.40;;;;;;5075891;28;20078;-82
2022/07/21 03:26:04;;;;;;;58.78;44.88;;;19.90;92.80;;;;;;5058943;28;20056;-80
2022/07/21 03:28:30;;;;;;;58.20;43.30;;;19.90;91.80;;;;;;5059455;28;20045;-81
2022/07/21 03:30:56;;;;;;;54.03;42.38;;;19.90;92.20;;;;;;5058957;28;20128;-79
2022/07/21 03:33:21;;;;;;;63.33;44.33;;;19.90;92.40;;;;;;5059107;28;20044;-79
2022/07/21 03:35:47;;;;;;;32.78;28.52;;;19.90;92.10;;;;;;5075654;28;20036;-79
2022/07/21 03:38:13;;;;;;;56.13;41.67;;;19.90;91.90;;;;;;5058925;28;20036;-80
2022/07/21 03:40:39;;;;;;;49.30;38.67;;;19.90;91.80;;;;;;5075809;28;20048;-79
2022/07/21 03:43:06;;;;;;;54.40;40.60;;;19.90;91.90;;;;;;5059031;28;20037;-78
2022/07/21 03:45:33;;;;;;;46.03;36.70;;;20.00;92.50;;;;;;5075844;28;20403;-80
2022/07/21 03:48:01;;;;;;;47.45;36.90;;;19.90;91.50;;;;;;5075335;28;20044;-78
2022/07/21 03:50:28;;;;;;;46.45;37.13;;;20.00;91.60;;;;;;5058613;28;20465;-78
2022/07/21 03:52:53;;;;;;;51.75;38.40;;;20.00;92.10;;;;;;5075088;28;20040;-79
2022/07/21 03:55:20;;;;;;;52.42;39.53;;;20.00;91.60;;;;;;5074833;28;20086;-79
2022/07/21 03:57:56;;;;;;;49.13;37.08;;;19.90;91.70;;;;;;5058435;28;20071;-79
2022/07/21 04:00:35;;;;;;;35.97;30.25;;;20.00;91.70;;;;;;5058295;28;20668;-80
2022/07/21 04:03:01;;;;;;;33.92;29.17;;;19.90;91.50;;;;;;5074802;28;20063;-79
2022/07/21 04:05:28;;;;;;;33.03;27.45;;;20.00;91.70;;;;;;5075174;28;20036;-80
2022/07/21 04:07:55;;;;;;;40.67;33.47;;;19.90;91.80;;;;;;5091791;28;20113;-80
2022/07/21 04:10:26;;;;;;;30.85;26.20;;;20.00;91.50;;;;;;5058196;28;20042;-80
2022/07/21 04:12:52;;;;;;;41.78;34.75;;;19.90;91.40;;;;;;5074643;28;20051;-80
2022/07/21 04:15:18;;;;;;;40.95;32.72;;;19.90;92.00;;;;;;5058343;28;20032;-80
2022/07/21 04:17:45;;;;;;;42.50;35.90;;;19.90;92.00;;;;;;5058122;28;20119;-79
2022/07/21 04:20:13;;;;;;;38.47;32.90;;;19.90;91.90;;;;;;5058074;28;20044;-80
2022/07/21 04:22:40;;;;;;;44.78;35.88;;;19.90;91.80;;;;;;5074894;28;20105;-80
2022/07/21 04:25:07;;;;;;;49.58;37.78;;;19.90;91.90;;;;;;5074250;28;20051;-80
2022/07/21 04:27:34;;;;;;;26.65;23.83;;;19.90;91.90;;;;;;5057434;28;20500;-80
2022/07/21 04:30:00;;;;;;;47.17;36.53;;;20.00;91.70;;;;;;5074663;28;20047;-80
2022/07/21 04:32:26;;;;;;;52.80;39.28;;;20.00;92.00;;;;;;5073581;28;20075;-79
2022/07/21 04:34:52;;;;;;;52.00;38.65;;;20.00;92.40;;;;;;5057732;28;20079;-80
2022/07/21 04:37:17;;;;;;;50.47;37.83;;;20.00;92.40;;;;;;5057759;28;20032;-79
2022/07/21 04:39:43;;;;;;;44.65;36.35;;;20.00;92.30;;;;;;5074327;28;20048;-79
2022/07/21 04:42:09;;;;;;;42.38;34.17;;;20.00;92.40;;;;;;5057493;28;20044;-79
2022/07/21 04:44:34;;;;;;;45.83;37.50;;;20.00;92.00;;;;;;5057978;28;20098;-79
2022/07/21 04:47:00;;;;;;;50.92;39.33;;;20.00;92.60;;;;;;5041254;28;20041;-79
2022/07/21 04:49:26;;;;;;;52.70;39.90;;;20.10;93.50;;;;;;5057717;28;20040;-79
2022/07/21 04:51:52;;;;;;;52.83;38.90;;;20.00;93.30;;;;;;5074170;28;20047;-80
2022/07/21 04:54:17;;;;;;;45.05;36.08;;;19.90;93.00;;;;;;5074001;28;20105;-80
2022/07/21 04:56:44;;;;;;;47.22;38.47;;;19.90;93.00;;;;;;5057070;28;20040;-79
2022/07/21 04:59:09;;;;;;;45.17;37.58;;;20.00;93.00;;;;;;5057129;28;20048;-80
2022/07/21 05:01:37;;;;;;;49.75;39.15;;;20.00;92.60;;;;;;5057847;28;20040;-79
2022/07/21 05:04:03;;;;;;;48.08;38.85;;;20.00;93.10;;;;;;5073883;28;20079;-80
2022/07/21 05:06:29;;;;;;;45.97;36.03;;;20.00;93.80;;;;;;5074156;28;20048;-79
2022/07/21 05:08:55;;;;;;;50.17;39.38;;;19.90;93.50;;;;;;5073758;28;20039;-80
2022/07/21 05:11:20;;;;;;;43.00;34.95;;;19.90;94.10;;;;;;5057383;28;20083;-79
2022/07/21 05:13:46;;;;;;;43.50;34.95;;;19.80;93.40;;;;;;5057149;28;20029;-78
2022/07/21 05:16:12;;;;;;;44.15;37.20;;;19.80;93.30;;;;;;5090537;28;20094;-78
2022/07/21 05:18:38;;;;;;;39.80;34.42;;;19.80;93.20;;;;;;5073098;28;20041;-80
2022/07/21 05:21:03;;;;;;;40.97;33.15;;;19.90;93.00;;;;;;5056890;28;20090;-79
2022/07/21 05:23:29;;;;;;;30.48;24.42;;;19.90;93.10;;;;;;5090627;28;20502;-79
2022/07/21 05:25:55;;;;;;;29.77;23.33;;;19.90;92.70;;;;;;5059057;28;20040;-78
2022/07/21 05:28:21;;;;;;;30.48;23.40;;;19.90;92.70;;;;;;5077047;28;20102;-79
2022/07/21 05:30:46;;;;;;;30.02;22.25;;;19.70;92.40;;;;;;5093643;28;20043;-79
2022/07/21 05:33:12;;;;;;;23.98;19.42;;;19.70;92.30;;;;;;5060604;28;20040;-80
2022/07/21 05:35:38;;;;;;;26.42;19.75;;;19.70;92.20;;;;;;5076597;28;20488;-78
2022/07/21 05:38:03;;;;;;;27.08;18.45;;;19.70;92.20;;;;;;5076976;28;20040;-79
2022/07/21 05:40:29;;;;;;;19.48;15.95;;;19.70;92.30;;;;;;5076847;28;20065;-77
2022/07/21 05:42:55;;;;;;;26.33;16.58;;;19.70;91.90;;;;;;5076126;28;20048;-77
2022/07/21 05:45:20;;;;;;;21.48;14.85;;;19.70;91.80;;;;;;5059989;28;20093;-78
2022/07/21 05:47:46;;;;;;;21.27;17.63;;;19.70;91.70;;;;;;5093550;28;20032;-77
2022/07/21 05:50:12;;;;;;;23.20;16.58;;;19.70;91.70;;;;;;5093294;28;20044;-77
2022/07/21 05:52:38;;;;;;;25.13;18.80;;;19.70;91.90;;;;;;5110520;28;20115;-78
2022/07/21 05:55:05;;;;;;;24.40;18.92;;;19.80;91.40;;;;;;5110003;28;20043;-78
2022/07/21 05:57:31;;;;;;;25.60;19.38;;;19.80;91.80;;;;;;5110397;28;20361;-77
2022/07/21 05:59:57;;;;;;;20.70;17.85;;;19.90;91.50;;;;;;5076623;28;20039;-79
2022/07/21 06:02:23;;;;;;;27.05;20.67;;;19.90;91.50;;;;;;5138072;27;20039;-79
2022/07/21 06:04:49;;;;;;;22.73;18.58;;;19.90;91.70;;;;;;5102704;27;20407;-76
2022/07/21 06:07:14;;;;;;;20.55;17.05;;;19.90;91.80;;;;;;5098953;27;20042;-76
2022/07/21 06:09:40;;;;;;;23.52;18.30;;;19.90;91.60;;;;;;5098602;27;20046;-76
2022/07/21 06:12:06;;;;;;;19.90;14.98;;;19.90;91.40;;;;;;5099312;28;20039;-76
2022/07/21 06:14:31;;;;;;;22.38;16.30;;;20.00;91.30;;;;;;5103781;27;20065;-76
2022/07/21 06:16:57;;;;;;;21.02;17.83;;;20.00;91.30;;;;;;5104055;27;20582;-76
2022/07/21 06:19:23;;;;;;;21.45;17.35;;;20.00;91.60;;;;;;5103461;27;20051;-76
2022/07/21 06:21:48;;;;;;;27.08;21.40;;;20.00;91.30;;;;;;5088871;27;20088;-75
2022/07/21 06:24:14;;;;;;;24.90;21.65;;;20.10;91.70;;;;;;5100602;27;20306;-76
2022/07/21 06:26:40;;;;;;;22.23;18.85;;;20.20;92.10;;;;;;5083070;27;20514;-76
2022/07/21 06:29:07;;;;;;;23.50;18.73;;;20.20;91.70;;;;;;5117815;27;20464;-77
2022/07/21 06:31:33;;;;;;;24.48;18.98;;;20.20;91.50;;;;;;5109329;27;20168;-77
2022/07/21 06:33:59;;;;;;;22.58;19.67;;;20.10;91.40;;;;;;5115784;27;20087;-77
2022/07/21 06:36:25;;;;;;;21.52;19.25;;;20.10;91.20;;;;;;5098739;27;20441;-77
2022/07/21 06:38:50;;;;;;;21.58;19.38;;;20.10;91.20;;;;;;5098768;27;20096;-78
2022/07/21 06:41:16;;;;;;;23.30;20.55;;;20.20;91.10;;;;;;5098722;27;20050;-77
2022/07/21 06:43:42;;;;;;;25.50;22.08;;;20.20;90.90;;;;;;5098729;27;20039;-77
2022/07/21 06:46:07;;;;;;;23.80;21.30;;;20.20;90.70;;;;;;5115648;28;20042;-77
2022/07/21 06:48:33;;;;;;;24.15;21.65;;;20.20;90.70;;;;;;5115685;27;20043;-77
2022/07/21 06:51:00;;;;;;;24.30;21.70;;;20.20;90.60;;;;;;5098614;28;20126;-77
2022/07/21 06:53:26;;;;;;;24.98;22.38;;;20.20;90.50;;;;;;5082167;28;20085;-78
2022/07/21 06:55:53;;;;;;;27.13;24.20;;;20.30;90.50;;;;;;5114860;28;20043;-77
2022/07/21 06:58:21;;;;;;;29.00;24.85;;;20.40;90.70;;;;;;5115493;28;20035;-78
2022/07/21 07:00:49;;;;;;;26.55;23.75;;;20.40;90.60;;;;;;5098707;28;20402;-79
2022/07/21 07:03:15;;;;;;;27.35;24.33;;;20.40;90.60;;;;;;5115391;28;20100;-79
2022/07/21 07:05:43;;;;;;;30.08;26.95;;;20.40;90.50;;;;;;5115473;28;20047;-79
2022/07/21 07:08:08;;;;;;;30.08;26.90;;;20.50;90.50;;;;;;5115661;28;20390;-78
2022/07/21 07:10:34;;;;;;;26.58;23.13;;;20.50;90.60;;;;;;5115281;28;20036;-78
2022/07/21 07:13:01;;;;;;;29.02;26.00;;;20.50;90.50;;;;;;5098724;28;20039;-77
2022/07/21 07:15:27;;;;;;;30.30;27.00;;;20.50;90.60;;;;;;5115869;28;20042;-79
2022/07/21 07:17:54;;;;;;;32.22;27.25;;;20.50;90.70;;;;;;5115339;28;20095;-78
2022/07/21 07:20:20;;;;;;;29.00;26.00;;;20.50;90.70;;;;;;5115384;28;20042;-78
2022/07/21 07:22:45;;;;;;;27.77;24.70;;;20.50;90.60;;;;;;5115309;28;20051;-77
2022/07/21 07:25:11;;;;;;;29.45;24.55;;;20.50;90.40;;;;;;5115240;28;20039;-77
2022/07/21 07:27:37;;;;;;;28.13;25.13;;;20.50;90.80;;;;;;5115052;28;20088;-78
2022/07/21 07:30:04;;;;;;;27.02;21.25;;;20.50;91.10;;;;;;5098192;28;20042;-78
2022/07/21 07:32:29;;;;;;;24.27;21.65;;;20.50;90.70;;;;;;5098266;28;20046;-77
2022/07/21 07:34:55;;;;;;;25.10;19.90;;;20.50;90.60;;;;;;5098487;28;20039;-78
2022/07/21 07:37:21;;;;;;;21.88;19.48;;;20.50;90.70;;;;;;5115162;28;20039;-77
2022/07/21 07:39:46;;;;;;;23.42;18.27;;;20.40;90.30;;;;;;5115410;28;20399;-79
2022/07/21 07:42:12;;;;;;;19.30;15.45;;;20.40;90.20;;;;;;5098197;28;20404;-79
2022/07/21 07:44:38;;;;;;;20.63;18.17;;;20.40;90.10;;;;;;5098208;28;20437;-78
2022/07/21 07:47:04;;;;;;;21.40;16.73;;;20.40;89.90;;;;;;5115038;28;20486;-78
2022/07/21 07:49:31;;;;;;;23.63;18.42;;;20.30;90.00;;;;;;5114919;28;20039;-78
2022/07/21 07:51:57;;;;;;;15.23;13.63;;;20.30;89.90;;;;;;5115244;28;20383;-79
2022/07/21 07:54:23;;;;;;;16.27;14.60;;;20.20;90.10;;;;;;5115005;28;20487;-81
2022/07/21 07:56:49;;;;;;;21.77;17.92;;;20.20;89.70;;;;;;5097955;28;20501;-78
2022/07/21 07:59:15;;;;;;;21.52;18.45;;;20.20;89.90;;;;;;5114961;28;20050;-80
2022/07/21 08:01:41;;;;;;;24.23;19.85;;;20.20;89.80;;;;;;5098032;28;20042;-79
2022/07/21 08:04:06;;;;;;;23.55;21.08;;;20.20;90.10;;;;;;5097932;28;20182;-78
2022/07/21 08:06:32;;;;;;;26.67;24.05;;;20.20;90.10;;;;;;5116503;27;20382;-78
2022/07/21 08:08:58;;;;;;;23.83;21.45;;;20.20;90.20;;;;;;5118796;27;20042;-78
2022/07/21 08:11:24;;;;;;;28.80;25.70;;;20.30;90.10;;;;;;5101570;27;20100;-79
2022/07/21 08:13:50;;;;;;;29.48;26.40;;;20.30;89.80;;;;;;5118318;27;20039;-79
2022/07/21 08:16:16;;;;;;;25.52;22.83;;;20.40;89.70;;;;;;5118402;27;20043;-78
2022/07/21 08:18:42;;;;;;;27.17;24.38;;;20.40;89.90;;;;;;5084805;27;20039;-80
2022/07/21 08:21:08;;;;;;;32.30;28.90;;;20.40;90.00;;;;;;5118248;27;20050;-79
2022/07/21 08:23:34;;;;;;;25.30;22.73;;;20.40;90.00;;;;;;5101263;27;20123;-78
2022/07/21 08:26:00;;;;;;;33.13;29.05;;;20.40;90.40;;;;;;5084127;27;20146;-79
2022/07/21 08:28:26;;;;;;;33.63;30.02;;;20.40;90.80;;;;;;5101113;27;20421;-77
2022/07/21 08:30:52;;;;;;;33.30;29.92;;;20.40;90.80;;;;;;5101038;27;20039;-79
2022/07/21 08:33:17;;;;;;;32.85;29.42;;;20.40;90.90;;;;;;5118328;27;20039;-79
2022/07/21 08:35:43;;;;;;;33.42;29.98;;;20.40;91.00;;;;;;5084377;27;20455;-78
2022/07/21 08:38:13;;;;;;;34.38;30.77;;;20.40;91.00;;;;;;5117970;27;20035;-78
2022/07/21 08:40:43;;;;;;;33.42;29.85;;;20.40;91.50;;;;;;5117966;27;20546;-78
2022/07/21 08:43:09;;;;;;;29.60;26.63;;;20.50;91.00;;;;;;5117771;27;20541;-78
2022/07/21 08:45:37;;;;;;;30.33;27.25;;;20.50;90.90;;;;;;5117879;27;20043;-78
2022/07/21 08:48:03;;;;;;;30.42;27.40;;;20.50;90.70;;;;;;5100757;27;20318;-78
2022/07/21 08:50:33;;;;;;;24.98;22.58;;;20.50;90.60;;;;;;5117710;27;20076;-80
2022/07/21 08:52:59;;;;;;;19.88;17.98;;;20.50;90.60;;;;;;5100962;27;20127;-79
2022/07/21 08:55:27;;;;;;;17.88;16.15;;;20.50;90.20;;;;;;5100774;27;20508;-80
2022/07/21 08:57:53;;;;;;;17.45;15.85;;;20.40;90.20;;;;;;5101214;27;20067;-80
2022/07/21 09:00:19;;;;;;;19.88;17.98;;;20.40;89.70;;;;;;5083977;27;20523;-79
2022/07/21 09:02:44;;;;;;;23.67;21.48;;;20.30;89.70;;;;;;5117479;27;20507;-79
2022/07/21 09:05:10;;;;;;;26.85;24.25;;;20.20;90.30;;;;;;5117385;27;20039;-79
2022/07/21 09:07:57;;;;;;;27.48;24.67;;;20.20;90.30;;;;;;5117450;27;20122;-80
2022/07/21 09:10:28;;;;;;;31.35;28.00;;;20.20;90.20;;;;;;5117475;27;20410;-78
2022/07/21 09:12:56;;;;;;;33.00;29.65;;;20.20;90.40;;;;;;5117285;27;20043;-78
2022/07/21 09:15:24;;;;;;;30.85;27.75;;;20.20;90.30;;;;;;5117479;27;20042;-79
2022/07/21 09:18:15;;;;;;;30.60;27.48;;;20.20;91.50;;;;;;5116855;27;20052;-79
2022/07/21 09:20:51;;;;;;;33.28;29.77;;;20.00;91.80;;;;;;5117472;27;20239;-80
2022/07/21 09:23:22;;;;;;;32.10;28.65;;;20.00;92.50;;;;;;5083738;27;20039;-78
2022/07/21 09:25:53;;;;;;;30.33;27.23;;;20.00;92.40;;;;;;5099792;27;20117;-78
2022/07/21 09:28:22;;;;;;;27.25;24.75;;;20.00;92.10;;;;;;5117345;27;20116;-79
2022/07/21 09:30:59;;;;;;;25.73;23.20;;;19.80;92.90;;;;;;5116853;27;20035;-79
2022/07/21 09:33:32;;;;;;;22.10;19.95;;;19.80;92.50;;;;;;5117097;27;20039;-77
2022/07/21 09:36:01;;;;;;;18.83;17.02;;;19.70;93.00;;;;;;5117078;27;20104;-78
2022/07/21 09:38:28;;;;;;;19.95;17.85;;;19.70;92.30;;;;;;5116824;27;20043;-81
2022/07/21 09:40:56;;;;;;;20.45;18.45;;;19.70;92.30;;;;;;5099755;27;20031;-82
2022/07/21 09:43:52;;;;;;;23.70;21.40;;;19.70;92.40;;;;;;5099982;27;20188;-79
2022/07/21 09:46:24;;;;;;;25.83;22.98;;;19.70;92.60;;;;;;5113146;27;20051;-79
2022/07/21 09:48:52;;;;;;;27.13;24.30;;;19.70;92.40;;;;;;5116941;27;20432;-79
2022/07/21 09:51:31;;;;;;;28.08;25.15;;;19.80;93.00;;;;;;5082742;27;20032;-79
2022/07/21 09:53:58;;;;;;;28.90;25.90;;;19.70;92.80;;;;;;5099576;27;20466;-78
2022/07/21 09:56:26;;;;;;;31.15;27.55;;;19.80;92.40;;;;;;5099835;27;20074;-80
2022/07/21 09:58:54;;;;;;;30.85;27.58;;;19.80;93.30;;;;;;5099322;27;20510;-80
2022/07/21 10:01:20;;;;;;;29.67;26.40;;;19.90;93.70;;;;;;5116388;27;20092;-79
2022/07/21 10:03:47;;;;;;;27.92;25.23;;;19.90;93.30;;;;;;5116454;27;20035;-80
2022/07/21 10:06:16;;;;;;;25.52;22.95;;;19.90;93.00;;;;;;5099622;27;20097;-82
2022/07/21 10:08:43;;;;;;;28.48;25.38;;;19.90;92.80;;;;;;5099182;27;20042;-81
2022/07/21 10:11:10;;;;;;;26.73;24.10;;;19.90;93.20;;;;;;5099193;27;20042;-78
2022/07/21 10:13:37;;;;;;;27.25;24.35;;;19.90;93.30;;;;;;5099065;27;20031;-80
2022/07/21 10:16:04;;;;;;;29.33;26.23;;;20.00;93.00;;;;;;5116320;27;20034;-83
2022/07/21 10:18:39;;;;;;;29.23;24.88;;;20.00;93.30;;;;;;5082380;27;20039;-82
2022/07/21 10:21:21;;;;;;;28.30;25.23;;;20.10;92.90;;;;;;5115991;27;20035;-82
2022/07/21 10:23:52;;;;;;;32.15;27.25;;;20.10;92.90;;;;;;5115944;27;20039;-81
2022/07/21 10:26:18;;;;;;;28.40;25.50;;;20.10;92.70;;;;;;5099008;27;20051;-82
2022/07/21 10:28:44;;;;;;;21.95;19.10;;;20.10;92.80;;;;;;5082274;27;20426;-80
2022/07/21 10:31:23;;;;;;;21.98;19.77;;;20.10;92.60;;;;;;5098054;27;20491;-81
2022/07/21 10:33:48;;;;;;;19.23;17.23;;;20.10;91.90;;;;;;5116177;27;20031;-84
2022/07/21 10:36:26;;;;;;;19.30;17.20;;;20.10;91.90;;;;;;5099038;27;20084;-80
2022/07/21 10:39:16;;;;;;;17.92;16.23;;;20.10;91.80;;;;;;5115752;27;20043;-84
2022/07/21 10:41:44;;;;;;;15.93;14.43;;;20.10;91.50;;;;;;5098720;27;20487;-81
2022/07/21 10:44:40;;;;;;;17.35;15.55;;;20.10;91.10;;;;;;5098876;27;20031;-82
2022/07/21 10:47:11;;;;;;;17.50;15.70;;;20.10;91.10;;;;;;5099165;27;20482;-81
2022/07/21 10:49:43;;;;;;;21.10;18.90;;;20.00;91.00;;;;;;5115490;28;20130;-81
2022/07/21 10:52:41;;;;;;;17.33;15.50;;;20.10;91.00;;;;;;5098935;28;20039;-81
2022/07/21 10:55:10;;;;;;;17.80;16.08;;;20.20;91.30;;;;;;5098843;28;20386;-81
2022/07/21 10:57:47;;;;;;;18.85;16.95;;;20.20;91.00;;;;;;5115429;28;20538;-80
2022/07/21 11:00:22;;;;;;;19.70;17.92;;;20.20;90.90;;;;;;5098793;28;20453;-80
2022/07/21 11:02:52;;;;;;;15.50;14.10;;;20.30;90.90;;;;;;5098520;28;20035;-80
2022/07/21 11:05:18;;;;;;;15.73;14.13;;;20.40;90.90;;;;;;5115525;28;20109;-80
2022/07/21 11:08:10;;;;;;;16.67;14.48;;;20.40;90.20;;;;;;5115543;28;20171;-81
2022/07/21 11:10:37;;;;;;;15.68;13.95;;;20.40;90.20;;;;;;5098499;28;20390;-82
2022/07/21 11:13:03;;;;;;;17.25;14.45;;;20.40;90.00;;;;;;5081607;28;20041;-79
2022/07/21 11:15:50;;;;;;;16.50;14.77;;;20.50;90.00;;;;;;5081660;28;20122;-80
2022/07/21 11:18:21;;;;;;;19.20;17.27;;;20.60;89.90;;;;;;5115396;28;20078;-81
2022/07/21 11:21:05;;;;;;;16.77;15.18;;;20.70;89.80;;;;;;5098357;28;20053;-80
2022/07/21 11:23:39;;;;;;;15.80;14.20;;;20.80;89.60;;;;;;5115581;28;20042;-78
2022/07/21 11:26:06;;;;;;;15.88;14.38;;;20.90;89.70;;;;;;5115149;28;20099;-80
2022/07/21 11:28:32;;;;;;;19.40;17.50;;;20.90;89.50;;;;;;5098626;28;20051;-79
2022/07/21 11:31:14;;;;;;;16.90;15.13;;;20.90;89.30;;;;;;5115136;28;20426;-79
2022/07/21 11:33:41;;;;;;;14.80;12.98;;;21.00;89.30;;;;;;5098172;28;20035;-78
2022/07/21 11:36:07;;;;;;;15.52;14.02;;;21.00;89.00;;;;;;5098439;28;20039;-79
2022/07/21 11:38:34;;;;;;;13.88;12.57;;;21.10;88.60;;;;;;5115156;28;20042;-79
2022/07/21 11:41:18;;;;;;;15.57;13.98;;;21.20;88.00;;;;;;5115759;27;20114;-79
2022/07/21 11:43:46;;;;;;;12.32;11.10;;;21.20;87.90;;;;;;5102324;27;20043;-79
2022/07/21 11:46:12;;;;;;;13.98;12.60;;;21.10;87.70;;;;;;5118977;27;20043;-79
2022/07/21 11:48:38;;;;;;;14.00;12.63;;;21.10;87.60;;;;;;5101972;27;20039;-79
2022/07/21 11:51:04;;;;;;;15.57;13.98;;;21.10;87.30;;;;;;5101876;27;20042;-80
2022/07/21 11:53:31;;;;;;;14.88;13.38;;;21.10;87.40;;;;;;5118853;27;20031;-80
2022/07/21 11:55:57;;;;;;;13.85;12.45;;;21.10;87.50;;;;;;5101746;27;20043;-79
2022/07/21 11:58:23;;;;;;;14.82;13.43;;;21.10;87.40;;;;;;5084989;27;20126;-79
2022/07/21 12:01:07;;;;;;;16.27;13.10;;;21.10;87.20;;;;;;5101787;27;20160;-81
2022/07/21 12:03:33;;;;;;;12.60;11.40;;;21.10;87.40;;;;;;5118675;27;20035;-79
2022/07/21 12:06:01;;;;;;;12.30;11.13;;;21.00;87.20;;;;;;5101852;27;20035;-80
2022/07/21 12:08:28;;;;;;;13.77;12.38;;;21.00;87.10;;;;;;5118543;27;20039;-80
2022/07/21 12:11:10;;;;;;;12.23;10.82;;;21.10;87.20;;;;;;5084653;27;20035;-80
2022/07/21 12:14:01;;;;;;;12.30;11.10;;;21.20;87.20;;;;;;5118810;27;20061;-80
2022/07/21 12:16:26;;;;;;;14.10;12.73;;;21.30;86.70;;;;;;5118477;27;20091;-79
2022/07/21 12:19:25;;;;;;;14.00;12.52;;;21.30;86.50;;;;;;5118382;27;20039;-80
2022/07/21 12:21:52;;;;;;;15.63;13.95;;;21.30;86.50;;;;;;5063406;27;20059;-78
2022/07/21 12:24:19;;;;;;;15.25;13.63;;;21.30;86.50;;;;;;5118133;27;20088;-79
2022/07/21 12:26:46;;;;;;;8.85;7.97;;;21.30;86.40;;;;;;5101090;27;20124;-80
2022/07/21 12:29:35;;;;;;;6.93;6.25;;;21.20;86.20;;;;;;5101330;27;20055;-79
2022/07/21 12:32:00;;;;;;;7.63;6.93;;;21.20;86.00;;;;;;5118172;27;20072;-78
2022/07/21 12:34:26;;;;;;;8.35;7.57;;;21.10;85.60;;;;;;5118036;27;20038;-79